CDT,Max TemperatureF,Mean TemperatureF,Min TemperatureF,Max Dew PointF,MeanDew PointF,Min DewpointF,Max Humidity, Mean Humidity, Min Humidity, Max Sea Level PressureIn, Mean Sea Level PressureIn, Min Sea Level PressureIn, Max VisibilityMiles, Mean VisibilityMiles, Min VisibilityMiles, Max Wind SpeedMPH, Mean Wind SpeedMPH, Max Gust SpeedMPH,PrecipitationIn, CloudCover, Events, WindDirDegrees
2013-5-1,81,69,57,62,56,48,90,68,45,30.06,29.96,29.88,10,10,10,23,11,29,0.00,0,,147
2013-5-2,63,48,33,59,43,34,93,84,74,30.25,30.18,30.04,10,9,4,24,14,31,0.32,7,Rain-Snow,344
2013-5-3,36,34,32,34,32,30,96,93,89,30.21,30.04,29.91,10,4,1,22,12,28,0.82,8,Rain-Snow,317
2013-5-4,46,40,33,38,34,32,96,81,65,30.01,29.89,29.82,10,8,2,14,5,22,0.03,8,Rain-Snow,328
2013-5-5,59,50,40,48,44,38,93,80,66,30.07,30.02,29.99,10,10,10,18,10,23,0.00,7,,324
2013-5-6,66,58,50,53,50,48,96,80,63,30.07,30.03,29.98,10,6,1,21,10,26,0.00,6,,324
2013-5-7,76,60,44,55,48,42,100,69,38,30.07,30.04,29.99,10,6,0,9,3,14,0.00,0,Fog,320
2013-5-8,73,63,52,59,54,49,89,73,57,30.08,29.99,29.91,10,10,10,21,7,24,0.04,3,Rain,143
2013-5-9,76,67,58,61,58,55,93,75,57,29.97,29.92,29.88,10,9,2,23,11,32,0.70,6,Rain-Thunderstorm,216
2013-5-10,66,57,48,58,55,47,100,82,63,30.06,29.96,29.88,10,9,6,18,8,22,T,7,,322
2013-5-11,71,57,43,53,44,31,100,63,26,30.21,30.09,30.05,10,6,0,24,10,29,0.00,0,Fog,320
2013-5-12,65,51,36,42,33,27,85,56,26,30.29,30.22,30.16,10,10,10,17,4,22,T,1,,302
2013-5-13,78,62,46,55,47,38,86,63,39,30.19,30.11,30.01,10,10,10,17,9,23,0.00,1,,165
2013-5-14,87,73,59,55,51,47,78,51,24,30.00,29.96,29.92,10,10,10,24,14,32,0.00,0,,217
2013-5-15,82,72,62,66,60,50,93,76,58,29.98,29.94,29.87,10,9,2,26,11,32,0.23,3,Rain-Thunderstorm,192
2013-5-16,67,64,61,62,61,59,100,91,81,29.92,29.88,29.85,10,10,7,16,10,20,0.03,7,Rain,146
2013-5-17,79,70,61,62,61,60,93,74,54,29.95,29.91,29.86,10,10,7,12,4,14,0.00,6,,153
2013-5-18,83,74,64,71,68,61,93,79,65,29.95,29.88,29.79,10,9,5,22,14,26,0.00,5,,144
2013-5-19,87,78,69,70,67,62,97,71,45,29.87,29.75,29.63,10,7,2,28,15,35,0.14,1,Rain-Thunderstorm,163
2013-5-20,77,69,61,70,63,59,97,86,74,29.86,29.79,29.71,10,8,1,30,10,44,1.02,7,Rain-Thunderstorm,161
2013-5-21,71,66,60,62,59,54,90,80,70,29.86,29.77,29.57,10,10,10,28,10,36,T,3,,223
2013-5-22,71,63,55,57,55,53,93,75,57,29.94,29.83,29.76,10,10,10,20,8,26,0.00,3,,256
2013-5-23,74,63,52,56,54,51,93,73,53,30.18,30.06,29.94,10,10,10,17,9,21,0.00,0,,359
2013-5-24,74,63,52,52,47,43,86,60,33,30.32,30.24,30.18,10,10,10,21,12,25,0.00,0,,123
2013-5-25,80,68,56,63,54,44,73,64,54,30.24,30.16,30.06,10,10,10,20,12,25,T,2,,163
2013-5-26,84,74,63,67,62,59,90,71,51,30.11,30.04,29.96,10,10,10,21,13,28,0.00,0,,171
2013-5-27,84,75,66,68,65,61,87,73,58,29.97,29.88,29.76,10,10,10,25,16,33,0.00,2,Thunderstorm,173
2013-5-28,83,75,67,67,65,62,84,71,58,29.87,29.81,29.73,10,10,10,24,15,31,0.04,1,Rain-Thunderstorm,175
2013-5-29,81,75,68,66,63,62,84,69,54,29.90,29.83,29.75,10,10,10,28,17,36,0.00,1,,166
2013-5-30,83,73,63,67,63,59,100,77,54,29.86,29.79,29.71,10,7,1,38,16,52,2.50,6,Rain-Thunderstorm,164
2013-5-31,82,73,64,71,66,63,93,79,65,29.88,29.78,29.67,10,9,1,28,15,34,2.10,6,Rain-Thunderstorm,180